createdAt,value
2023-01-12T00:01:42.917Z,100914.44
2023-01-12T00:04:12.305Z,100920.78
2023-01-12T00:06:40.395Z,100918.97
2023-01-12T00:09:07.681Z,100924.34
2023-01-12T00:11:35.336Z,100938.41
2023-01-12T00:14:02.508Z,100943.00
2023-01-12T00:16:35.155Z,100945.47
2023-01-12T00:19:12.947Z,100941.91
2023-01-12T00:22:02.289Z,100937.50
2023-01-12T00:24:44.225Z,100923.53
2023-01-12T00:27:16.407Z,100921.63
2023-01-12T00:29:43.445Z,100923.47
2023-01-12T00:32:15.341Z,100916.94
2023-01-12T00:34:42.340Z,100911.41
2023-01-12T00:37:10.070Z,100914.81
2023-01-12T00:39:40.400Z,100916.47
2023-01-12T00:42:26.237Z,100911.16
2023-01-12T00:45:11.568Z,100908.50
2023-01-12T00:47:38.238Z,100911.22
2023-01-12T00:50:05.169Z,100905.84
2023-01-12T00:52:32.233Z,100911.09
2023-01-12T00:54:59.812Z,100905.94
2023-01-12T00:57:26.689Z,100896.09
2023-01-12T00:59:58.332Z,100889.09
2023-01-12T01:02:26.508Z,100898.00
2023-01-12T01:04:53.195Z,100904.56
2023-01-12T01:07:21.839Z,100889.97
2023-01-12T01:09:48.743Z,100891.34
2023-01-12T01:12:15.396Z,100883.28
2023-01-12T01:14:42.078Z,100880.50
2023-01-12T01:17:08.872Z,100896.44
2023-01-12T01:19:35.552Z,100896.41
2023-01-12T01:22:05.326Z,100899.03
2023-01-12T01:24:31.970Z,100887.56
2023-01-12T01:26:58.651Z,100878.69
2023-01-12T01:29:25.254Z,100873.53
2023-01-12T01:31:55.574Z,100881.25
2023-01-12T01:34:23.989Z,100872.38
2023-01-12T01:36:50.739Z,100867.94
2023-01-12T01:39:17.359Z,100864.31
2023-01-12T01:41:44.005Z,100863.44
2023-01-12T01:44:29.020Z,100864.41
2023-01-12T01:46:59.240Z,100852.94
2023-01-12T01:49:39.121Z,100868.84
2023-01-12T01:52:12.958Z,100861.63
2023-01-12T01:54:56.519Z,100853.50
2023-01-12T01:57:31.367Z,100845.50
2023-01-12T01:59:58.667Z,100845.84
2023-01-12T02:02:25.845Z,100843.94
2023-01-12T02:04:53.727Z,100830.56
2023-01-12T02:07:20.460Z,100825.91
2023-01-12T02:09:47.131Z,100820.81
2023-01-12T02:12:32.596Z,100818.03
2023-01-12T02:15:18.044Z,100812.50
2023-01-12T02:17:53.716Z,100818.13
2023-01-12T02:20:40.690Z,100820.56
2023-01-12T02:23:15.086Z,100816.97
2023-01-12T02:26:30.132Z,100827.50
2023-01-12T02:29:26.758Z,100817.09
2023-01-12T02:32:02.471Z,100815.72
2023-01-12T02:34:32.203Z,100809.69
2023-01-12T02:37:32.880Z,100801.88
2023-01-12T02:40:07.046Z,100800.31
2023-01-12T02:43:12.087Z,100794.91
2023-01-12T02:45:48.166Z,100797.44
2023-01-12T02:48:26.306Z,100788.53
2023-01-12T02:50:58.948Z,100787.75
2023-01-12T02:53:43.384Z,100780.78
2023-01-12T02:56:12.200Z,100785.41
2023-01-12T02:58:41.959Z,100783.38
2023-01-12T03:01:09.797Z,100783.34
2023-01-12T03:03:42.849Z,100795.44
2023-01-12T03:06:10.072Z,100787.63
2023-01-12T03:08:38.457Z,100778.88
2023-01-12T03:11:18.796Z,100786.84
2023-01-12T03:13:49.786Z,100775.28
2023-01-12T03:16:20.435Z,100776.13
2023-01-12T03:18:55.907Z,100769.78
2023-01-12T03:21:29.836Z,100761.00
2023-01-12T03:24:05.935Z,100753.19
2023-01-12T03:26:33.512Z,100769.97
2023-01-12T03:29:28.854Z,100769.09
2023-01-12T03:31:56.524Z,100763.69
2023-01-12T03:34:23.853Z,100773.69
2023-01-12T03:37:13.857Z,100772.75
2023-01-12T03:39:58.719Z,100767.09
2023-01-12T03:42:57.955Z,100762.81
2023-01-12T03:45:30.574Z,100755.47
2023-01-12T03:48:19.720Z,100755.69
2023-01-12T03:50:51.390Z,100760.25
2023-01-12T03:53:21.382Z,100753.03
2023-01-12T03:55:50.539Z,100751.84
2023-01-12T03:58:17.566Z,100744.50
2023-01-12T04:00:50.512Z,100754.13
2023-01-12T04:03:17.585Z,100754.59
2023-01-12T04:05:45.479Z,100742.47
2023-01-12T04:08:14.684Z,100731.09
2023-01-12T04:10:41.741Z,100740.50
2023-01-12T04:13:08.507Z,100726.13
2023-01-12T04:15:38.131Z,100724.28
2023-01-12T04:18:05.451Z,100728.78
2023-01-12T04:20:33.048Z,100727.00
2023-01-12T04:22:59.947Z,100722.72
2023-01-12T04:25:27.185Z,100722.44
2023-01-12T04:28:02.404Z,100715.25
2023-01-12T04:30:30.893Z,100709.19
2023-01-12T04:32:58.140Z,100717.88
2023-01-12T04:35:25.819Z,100714.22
2023-01-12T04:37:52.830Z,100717.91
2023-01-12T04:40:20.331Z,100709.91
2023-01-12T04:43:01.573Z,100707.38
2023-01-12T04:45:30.388Z,100713.34
2023-01-12T04:48:01.144Z,100701.06
2023-01-12T04:50:27.844Z,100701.97
2023-01-12T04:52:54.486Z,100700.00
2023-01-12T04:55:21.229Z,100707.63
2023-01-12T04:57:47.904Z,100703.06
2023-01-12T05:00:14.720Z,100705.91
2023-01-12T05:02:41.437Z,100697.63
2023-01-12T05:05:09.247Z,100692.88
2023-01-12T05:07:36.021Z,100697.75
2023-01-12T05:10:21.210Z,100682.53
2023-01-12T05:12:48.294Z,100683.03
2023-01-12T05:15:14.939Z,100682.47
2023-01-12T05:17:41.576Z,100677.56
2023-01-12T05:20:09.085Z,100685.19
2023-01-12T05:22:35.786Z,100688.53
2023-01-12T05:25:02.490Z,100690.19
2023-01-12T05:27:29.169Z,100696.59
2023-01-12T05:29:57.361Z,100695.66
2023-01-12T05:32:24.125Z,100692.09
2023-01-12T05:34:50.848Z,100699.03
2023-01-12T05:37:17.542Z,100702.22
2023-01-12T05:39:44.230Z,100701.69
2023-01-12T05:42:29.755Z,100693.06
2023-01-12T05:44:56.398Z,100689.34
2023-01-12T05:47:22.991Z,100691.09
2023-01-12T05:49:49.620Z,100684.56
2023-01-12T05:52:16.284Z,100687.25
2023-01-12T05:54:43.000Z,100681.78
2023-01-12T05:57:09.615Z,100687.09
2023-01-12T05:59:36.359Z,100683.63
2023-01-12T06:02:03.065Z,100687.72
2023-01-12T06:04:29.760Z,100689.69
2023-01-12T06:06:56.454Z,100688.19
2023-01-12T06:09:23.101Z,100680.69
2023-01-12T06:12:08.383Z,100677.56
2023-01-12T06:14:35.745Z,100677.28
2023-01-12T06:17:02.377Z,100682.38
2023-01-12T06:19:29.022Z,100684.09
2023-01-12T06:21:59.446Z,100678.09
2023-01-12T06:24:28.329Z,100668.91
2023-01-12T06:26:55.336Z,100659.44
2023-01-12T06:29:22.084Z,100668.34
2023-01-12T06:31:48.790Z,100664.78
2023-01-12T06:34:15.574Z,100650.56
2023-01-12T06:36:42.300Z,100648.53
2023-01-12T06:39:09.155Z,100650.31
2023-01-12T06:41:54.512Z,100651.09
2023-01-12T06:44:21.247Z,100647.09
2023-01-12T06:46:48.101Z,100642.69
2023-01-12T06:49:16.702Z,100640.09
2023-01-12T06:51:43.725Z,100649.88
2023-01-12T06:54:10.401Z,100650.06
2023-01-12T06:56:37.031Z,100646.91
2023-01-12T06:59:03.687Z,100641.13
2023-01-12T07:01:30.511Z,100629.84
2023-01-12T07:03:57.175Z,100637.28
2023-01-12T07:06:24.937Z,100629.22
2023-01-12T07:08:51.554Z,100636.66
2023-01-12T07:11:18.531Z,100633.81
2023-01-12T07:13:45.316Z,100624.81
2023-01-12T07:16:12.103Z,100629.31
2023-01-12T07:18:38.855Z,100630.13
2023-01-12T07:21:06.670Z,100627.41
2023-01-12T07:23:35.228Z,100620.63
2023-01-12T07:26:02.042Z,100608.81
2023-01-12T07:28:31.348Z,100620.72
2023-01-12T07:31:02.470Z,100610.47
2023-01-12T07:33:29.523Z,100618.03
2023-01-12T07:36:00.361Z,100605.56
2023-01-12T07:38:30.387Z,100613.53
2023-01-12T07:41:01.493Z,100605.69
2023-01-12T07:43:28.368Z,100598.44
2023-01-12T07:45:59.215Z,100590.94
2023-01-12T07:48:27.684Z,100594.34
2023-01-12T07:50:54.561Z,100582.56
2023-01-12T07:53:21.576Z,100583.28
2023-01-12T07:55:48.435Z,100591.03
2023-01-12T07:58:15.214Z,100581.06
2023-01-12T08:00:41.896Z,100577.97
2023-01-12T08:03:10.521Z,100574.59
2023-01-12T08:05:38.059Z,100587.97
2023-01-12T08:08:05.939Z,100581.13
2023-01-12T08:10:32.855Z,100576.19
2023-01-12T08:12:59.607Z,100562.13
2023-01-12T08:15:27.094Z,100572.38
2023-01-12T08:18:00.425Z,100570.34
2023-01-12T08:20:30.442Z,100564.53
2023-01-12T08:23:01.562Z,100570.16
2023-01-12T08:25:33.583Z,100565.03
2023-01-12T08:28:03.692Z,100564.63
2023-01-12T08:30:30.454Z,100559.91
2023-01-12T08:32:58.556Z,100550.00
2023-01-12T08:35:27.191Z,100557.81
2023-01-12T08:37:55.186Z,100548.25
2023-01-12T08:40:22.636Z,100552.22
2023-01-12T08:42:50.187Z,100541.31
2023-01-12T08:45:16.906Z,100547.69
2023-01-12T08:47:45.333Z,100554.94
2023-01-12T08:50:15.385Z,100539.84
2023-01-12T08:52:42.115Z,100547.13
2023-01-12T08:55:11.269Z,100547.31
2023-01-12T08:57:38.487Z,100531.59
2023-01-12T09:00:06.695Z,100538.53
2023-01-12T09:02:33.614Z,100533.41
2023-01-12T09:05:00.329Z,100536.72
2023-01-12T09:07:27.085Z,100536.66
2023-01-12T09:09:53.701Z,100530.38
2023-01-12T09:12:20.365Z,100527.53
2023-01-12T09:14:47.026Z,100519.91
2023-01-12T09:17:13.807Z,100516.56
2023-01-12T09:19:40.497Z,100506.84
2023-01-12T09:22:08.219Z,100508.44
2023-01-12T09:24:35.889Z,100505.03
2023-01-12T09:27:03.174Z,100501.03
2023-01-12T09:29:29.935Z,100497.38
2023-01-12T09:31:56.911Z,100495.28
2023-01-12T09:34:23.635Z,100492.09
2023-01-12T09:36:52.464Z,100496.03
2023-01-12T09:39:27.358Z,100496.09
2023-01-12T09:42:13.152Z,100493.13
2023-01-12T09:45:00.934Z,100481.53
2023-01-12T09:47:36.786Z,100477.13
2023-01-12T09:50:16.544Z,100463.69
2023-01-12T09:52:49.210Z,100467.53
2023-01-12T09:55:24.794Z,100460.56
2023-01-12T09:58:07.033Z,100445.13
2023-01-12T10:00:33.855Z,100447.75
2023-01-12T10:03:06.488Z,100437.41
2023-01-12T10:05:46.301Z,100436.13
2023-01-12T10:08:30.413Z,100446.25
2023-01-12T10:11:06.281Z,100446.13
2023-01-12T10:14:01.056Z,100440.13
2023-01-12T10:16:36.835Z,100438.84
2023-01-12T10:19:11.285Z,100435.13
2023-01-12T10:21:37.978Z,100431.47
2023-01-12T10:24:13.075Z,100439.88
2023-01-12T10:26:44.206Z,100432.47
2023-01-12T10:29:11.529Z,100424.56
2023-01-12T10:31:38.242Z,100429.22
2023-01-12T10:34:11.075Z,100426.66
2023-01-12T10:36:43.760Z,100426.22
2023-01-12T10:39:25.779Z,100407.06
2023-01-12T10:42:35.200Z,100409.47
2023-01-12T10:45:16.686Z,100410.97
2023-01-12T10:47:45.118Z,100413.41
2023-01-12T10:50:28.126Z,100392.63
2023-01-12T10:52:58.625Z,100401.09
2023-01-12T10:55:30.243Z,100396.78
2023-01-12T10:57:57.166Z,100395.06
2023-01-12T11:00:26.415Z,100387.13
2023-01-12T11:02:53.406Z,100388.16
2023-01-12T11:05:38.660Z,100370.16
2023-01-12T11:08:26.831Z,100360.53
2023-01-12T11:10:53.687Z,100367.44
2023-01-12T11:13:36.572Z,100367.34
2023-01-12T11:16:16.518Z,100351.41
2023-01-12T11:18:57.061Z,100358.44
2023-01-12T11:21:26.144Z,100337.38
2023-01-12T11:24:05.934Z,100344.69
2023-01-12T11:26:45.589Z,100358.44
2023-01-12T11:29:26.153Z,100338.28
2023-01-12T11:31:56.071Z,100346.94
2023-01-12T11:34:25.513Z,100336.53
2023-01-12T11:36:54.529Z,100340.13
2023-01-12T11:39:23.856Z,100333.38
2023-01-12T11:42:17.822Z,100327.22
2023-01-12T11:45:06.313Z,100328.34
2023-01-12T11:48:00.109Z,100324.22
2023-01-12T11:50:32.822Z,100317.69
2023-01-12T11:52:59.646Z,100314.47
2023-01-12T11:55:52.061Z,100333.06
2023-01-12T11:58:46.905Z,100312.53
2023-01-12T12:01:29.913Z,100315.41
2023-01-12T12:04:01.852Z,100309.97
2023-01-12T12:06:43.851Z,100318.38
2023-01-12T12:09:25.797Z,100309.97
2023-01-12T12:11:58.481Z,100300.34
2023-01-12T12:14:57.232Z,100300.78
2023-01-12T12:17:41.904Z,100292.31
2023-01-12T12:20:21.788Z,100290.25
2023-01-12T12:23:42.247Z,100310.94
2023-01-12T12:26:36.344Z,100296.47
2023-01-12T12:29:24.845Z,100310.84
2023-01-12T12:32:02.666Z,100309.69
2023-01-12T12:34:58.515Z,100304.38
2023-01-12T12:37:40.511Z,100305.38
2023-01-12T12:40:18.798Z,100300.25
2023-01-12T12:43:16.548Z,100294.78
2023-01-12T12:45:56.627Z,100302.41
2023-01-12T12:48:41.942Z,100302.06
2023-01-12T12:51:09.351Z,100289.84
2023-01-12T12:53:44.418Z,100290.34
2023-01-12T12:56:14.403Z,100300.44
2023-01-12T12:58:49.031Z,100297.53
2023-01-12T13:01:25.016Z,100287.97
2023-01-12T13:03:53.007Z,100282.81
2023-01-12T13:06:27.208Z,100310.31
2023-01-12T13:08:56.128Z,100292.84
2023-01-12T13:12:00.611Z,100291.63
2023-01-12T13:14:41.490Z,100299.19
2023-01-12T13:17:20.521Z,100291.69
2023-01-12T13:20:24.097Z,100290.13
2023-01-12T13:22:52.289Z,100293.13
2023-01-12T13:25:24.927Z,100295.47
2023-01-12T13:28:06.839Z,100297.75
2023-01-12T13:30:35.006Z,100286.63
2023-01-12T13:33:01.538Z,100278.56
2023-01-12T13:35:31.252Z,100291.94
2023-01-12T13:37:59.364Z,100279.59
2023-01-12T13:40:29.161Z,100282.94
2023-01-12T13:43:16.068Z,100279.69
2023-01-12T13:46:05.406Z,100297.00
2023-01-12T13:48:34.595Z,100285.09
2023-01-12T13:51:13.337Z,100291.28
2023-01-12T13:53:39.949Z,100298.38
2023-01-12T13:56:07.725Z,100309.56
2023-01-12T13:58:42.653Z,100296.63
2023-01-12T14:01:29.395Z,100295.00
2023-01-12T14:04:03.305Z,100300.03
2023-01-12T14:06:48.550Z,100292.56
2023-01-12T14:09:32.972Z,100303.31
2023-01-12T14:12:14.203Z,100299.91
2023-01-12T14:15:24.009Z,100303.44
2023-01-12T14:18:20.920Z,100292.34
2023-01-12T14:20:50.021Z,100301.78
2023-01-12T14:23:23.243Z,100298.41
2023-01-12T14:26:13.246Z,100304.81
2023-01-12T14:28:45.092Z,100295.59
2023-01-12T14:31:29.075Z,100297.25
2023-01-12T14:33:58.168Z,100297.31
2023-01-12T14:36:28.682Z,100293.47
2023-01-12T14:38:57.486Z,100300.50
2023-01-12T14:41:46.716Z,100291.66
2023-01-12T14:44:52.268Z,100288.84
2023-01-12T14:47:27.241Z,100287.59
2023-01-12T14:49:54.005Z,100283.84
2023-01-12T14:52:26.504Z,100292.81
2023-01-12T14:54:53.141Z,100297.19
2023-01-12T14:57:24.122Z,100289.91
2023-01-12T14:59:52.288Z,100299.66
2023-01-12T15:02:37.428Z,100288.13
2023-01-12T15:05:05.562Z,100292.78
2023-01-12T15:07:38.314Z,100290.78
2023-01-12T15:10:11.024Z,100293.50
2023-01-12T15:12:48.836Z,100290.91
2023-01-12T15:15:52.553Z,100288.59
2023-01-12T15:18:37.999Z,100294.25
2023-01-12T15:21:23.374Z,100296.28
2023-01-12T15:24:08.576Z,100290.63
2023-01-12T15:26:35.215Z,100293.94
2023-01-12T15:29:01.825Z,100301.38
2023-01-12T15:31:32.831Z,100299.69
2023-01-12T15:34:00.855Z,100300.50
2023-01-12T15:36:27.763Z,100294.38
2023-01-12T15:38:54.518Z,100297.47
2023-01-12T15:41:45.008Z,100290.53
2023-01-12T15:44:15.770Z,100298.63
2023-01-12T15:46:43.038Z,100295.75
2023-01-12T15:49:11.415Z,100301.53
2023-01-12T15:51:38.132Z,100301.50
2023-01-12T15:54:05.591Z,100305.53
2023-01-12T15:56:32.306Z,100309.78
2023-01-12T15:58:59.080Z,100305.78
2023-01-12T16:01:32.387Z,100302.06
2023-01-12T16:04:35.657Z,100314.78
2023-01-12T16:06:46.003Z,100316.19
2023-01-12T16:09:12.726Z,100311.44
2023-01-12T16:11:39.734Z,100316.44
2023-01-12T16:14:06.449Z,100315.25
2023-01-12T16:16:33.118Z,100319.72
2023-01-12T16:19:01.375Z,100319.59
2023-01-12T16:21:28.478Z,100317.25
2023-01-12T16:23:57.933Z,100312.19
2023-01-12T16:26:26.079Z,100314.69
2023-01-12T16:28:54.068Z,100312.59
2023-01-12T16:31:22.208Z,100313.94
2023-01-12T16:33:49.034Z,100313.50
2023-01-12T16:36:16.083Z,100315.22
2023-01-12T16:38:42.867Z,100320.44
2023-01-12T16:41:22.345Z,100317.72
2023-01-12T16:43:49.488Z,100318.53
2023-01-12T16:46:16.867Z,100319.81
2023-01-12T16:48:43.969Z,100311.59
2023-01-12T16:51:12.343Z,100313.47
2023-01-12T16:53:41.353Z,100316.94
2023-01-12T16:56:11.245Z,100308.34
2023-01-12T16:58:38.175Z,100305.34
2023-01-12T17:01:13.047Z,100314.00
2023-01-12T17:03:41.679Z,100306.34
2023-01-12T17:06:13.892Z,100301.53
2023-01-12T17:08:41.743Z,100300.13
2023-01-12T17:11:13.747Z,100297.34
2023-01-12T17:13:42.104Z,100304.25
2023-01-12T17:16:12.447Z,100305.81
2023-01-12T17:18:39.587Z,100303.34
2023-01-12T17:21:12.559Z,100292.84
2023-01-12T17:23:41.122Z,100303.53
2023-01-12T17:26:10.762Z,100311.94
2023-01-12T17:28:38.890Z,100300.53
2023-01-12T17:31:10.693Z,100311.81
2023-01-12T17:33:38.538Z,100310.09
2023-01-12T17:36:06.597Z,100317.09
2023-01-12T17:38:34.112Z,100316.53
2023-01-12T17:41:00.797Z,100317.88
2023-01-12T17:43:27.535Z,100301.38
2023-01-12T17:45:54.288Z,100307.69
2023-01-12T17:48:21.127Z,100313.22
2023-01-12T17:50:48.101Z,100310.34
2023-01-12T17:53:17.363Z,100305.06
2023-01-12T17:55:48.814Z,100302.06
2023-01-12T17:58:18.677Z,100303.53
2023-01-12T18:00:45.385Z,100290.97
2023-01-12T18:03:12.086Z,100300.53
2023-01-12T18:05:39.673Z,100291.06
2023-01-12T18:08:07.571Z,100296.84
2023-01-12T18:10:34.325Z,100291.72
2023-01-12T18:13:00.942Z,100298.44
2023-01-12T18:15:29.722Z,100294.28
2023-01-12T18:17:56.582Z,100292.53
2023-01-12T18:20:23.448Z,100296.25
2023-01-12T18:22:50.653Z,100292.31
2023-01-12T18:25:18.435Z,100293.59
2023-01-12T18:27:45.626Z,100285.38
2023-01-12T18:30:12.540Z,100291.00
2023-01-12T18:32:39.772Z,100278.78
2023-01-12T18:35:06.628Z,100279.69
2023-01-12T18:37:33.465Z,100281.63
2023-01-12T18:40:01.147Z,100269.50
2023-01-12T18:42:49.594Z,100272.13
2023-01-12T18:45:20.577Z,100276.44
2023-01-12T18:48:06.786Z,100265.19
2023-01-12T18:50:51.974Z,100271.50
2023-01-12T18:53:24.607Z,100262.16
2023-01-12T18:55:55.239Z,100258.34
2023-01-12T18:58:28.894Z,100249.91
2023-01-12T19:01:13.552Z,100256.28
2023-01-12T19:03:41.488Z,100257.97
2023-01-12T19:06:12.897Z,100259.34
2023-01-12T19:08:58.196Z,100266.16
2023-01-12T19:11:25.709Z,100269.69
2023-01-12T19:14:11.088Z,100257.25
2023-01-12T19:16:56.384Z,100259.69
2023-01-12T19:19:27.414Z,100253.78
2023-01-12T19:22:12.846Z,100253.38
2023-01-12T19:24:58.203Z,100251.28
2023-01-12T19:28:00.274Z,100258.56
2023-01-12T19:30:27.164Z,100244.06
2023-01-12T19:32:54.859Z,100249.06
2023-01-12T19:35:21.644Z,100242.13
2023-01-12T19:37:49.377Z,100251.91
2023-01-12T19:40:20.061Z,100255.09
2023-01-12T19:43:05.611Z,100249.75
2023-01-12T19:45:32.872Z,100249.19
2023-01-12T19:47:59.675Z,100252.91
2023-01-12T19:50:26.625Z,100247.50
2023-01-12T19:52:53.288Z,100246.06
2023-01-12T19:55:20.055Z,100249.22
2023-01-12T19:57:46.746Z,100241.16
2023-01-12T20:00:17.913Z,100248.41
2023-01-12T20:02:45.044Z,100248.25
2023-01-12T20:05:13.615Z,100247.72
2023-01-12T20:07:40.535Z,100247.91
2023-01-12T20:10:07.406Z,100242.66
2023-01-12T20:12:34.057Z,100249.03
2023-01-12T20:15:00.852Z,100243.50
2023-01-12T20:17:29.139Z,100252.31
2023-01-12T20:19:55.926Z,100242.47
2023-01-12T20:22:22.706Z,100245.19
2023-01-12T20:24:49.432Z,100246.66
2023-01-12T20:27:16.185Z,100243.50
2023-01-12T20:29:43.067Z,100238.06
2023-01-12T20:32:09.851Z,100248.19
2023-01-12T20:34:36.574Z,100230.59
2023-01-12T20:37:03.355Z,100233.59
2023-01-12T20:39:31.078Z,100237.78
2023-01-12T20:41:57.930Z,100239.91
2023-01-12T20:44:24.818Z,100232.25
2023-01-12T20:46:51.518Z,100235.91
2023-01-12T20:49:18.373Z,100244.03
2023-01-12T20:51:45.250Z,100236.72
2023-01-12T20:54:16.124Z,100241.47
2023-01-12T20:56:42.859Z,100237.16
2023-01-12T20:59:09.860Z,100243.69
2023-01-12T21:01:36.622Z,100224.94
2023-01-12T21:04:03.421Z,100233.47
2023-01-12T21:06:30.149Z,100237.16
2023-01-12T21:08:56.956Z,100221.91
2023-01-12T21:11:23.786Z,100230.16
2023-01-12T21:13:50.569Z,100232.41
2023-01-12T21:16:19.629Z,100230.53
2023-01-12T21:18:46.505Z,100227.59
2023-01-12T21:21:13.339Z,100220.69
2023-01-12T21:23:40.062Z,100227.06
2023-01-12T21:26:08.044Z,100219.13
2023-01-12T21:28:37.697Z,100225.09
2023-01-12T21:31:04.890Z,100210.00
2023-01-12T21:33:32.119Z,100216.47
2023-01-12T21:35:59.537Z,100221.78
2023-01-12T21:38:26.902Z,100210.34
2023-01-12T21:40:54.330Z,100214.75
2023-01-12T21:43:21.546Z,100202.75
2023-01-12T21:45:51.115Z,100198.28
2023-01-12T21:48:21.770Z,100202.28
2023-01-12T21:50:48.657Z,100205.91
2023-01-12T21:53:20.600Z,100208.72
2023-01-12T21:55:55.593Z,100207.44
2023-01-12T21:58:25.671Z,100199.41
2023-01-12T22:00:52.951Z,100202.59
2023-01-12T22:03:19.825Z,100200.13
2023-01-12T22:05:47.906Z,100202.75
2023-01-12T22:08:14.614Z,100195.25
2023-01-12T22:10:41.307Z,100191.78
2023-01-12T22:13:11.291Z,100198.34
2023-01-12T22:15:41.616Z,100193.22
2023-01-12T22:18:08.957Z,100188.78
2023-01-12T22:20:35.741Z,100200.25
2023-01-12T22:23:02.466Z,100193.16
2023-01-12T22:25:29.366Z,100177.66
2023-01-12T22:27:56.686Z,100182.50
2023-01-12T22:30:27.982Z,100175.09
2023-01-12T22:32:55.763Z,100175.38
2023-01-12T22:35:23.238Z,100167.81
2023-01-12T22:37:50.025Z,100175.38
2023-01-12T22:40:17.101Z,100175.13
2023-01-12T22:43:02.487Z,100175.69
2023-01-12T22:45:29.186Z,100172.09
2023-01-12T22:47:56.722Z,100165.81
2023-01-12T22:50:24.479Z,100166.84
2023-01-12T22:52:52.752Z,100169.34
2023-01-12T22:55:20.817Z,100171.22
2023-01-12T22:57:47.637Z,100165.31
2023-01-12T23:00:19.153Z,100165.97
2023-01-12T23:03:02.343Z,100165.91
2023-01-12T23:05:36.273Z,100148.06
2023-01-12T23:08:06.847Z,100158.84
2023-01-12T23:10:33.796Z,100163.50
2023-01-12T23:13:15.819Z,100170.19
2023-01-12T23:15:46.025Z,100163.88
2023-01-12T23:18:14.771Z,100133.00
2023-01-12T23:20:43.067Z,100147.38
2023-01-12T23:23:10.811Z,100144.47
2023-01-12T23:25:38.292Z,100151.72
2023-01-12T23:28:06.240Z,100154.06
2023-01-12T23:30:33.086Z,100146.59
2023-01-12T23:33:00.995Z,100136.75
2023-01-12T23:35:27.982Z,100142.22
2023-01-12T23:37:54.785Z,100144.53
2023-01-12T23:40:21.694Z,100135.94
2023-01-12T23:42:48.525Z,100120.34
2023-01-12T23:45:15.324Z,100139.19
2023-01-12T23:47:42.929Z,100142.06
2023-01-12T23:50:11.445Z,100139.47
2023-01-12T23:52:38.420Z,100130.19
2023-01-12T23:55:05.970Z,100117.63
2023-01-12T23:57:33.889Z,100128.53
